Time;durP1;ratioP1;P1;durP2;ratioP2;P2;SDS_P1;SDS_P2;PMS_P1;PMS_P2;Temp;Humidity;BMP_temperature;BMP_pressure;BME280_temperature;BME280_humidity;BME280_pressure;Samples;Min_cycle;Max_cycle;Signal;HPM_P1;HPM_P2
2023/04/21 05:33:03;;;;;;;21.40;11.32;;;;;;;1.39;100.00;96202.13;2083734;28;20578;-60
2023/04/21 05:34:05;;;;;;;23.02;11.90;;;;;;;1.56;100.00;96207.00;2078814;28;20223;-60
2023/04/21 05:39:56;;;;;;;20.33;12.10;;;;;;;1.84;100.00;96215.13;2082850;28;20569;-60
2023/04/21 07:04:45;;;;;;;20.17;12.98;;;;;;;4.51;94.95;96190.25;2084551;28;20596;-59
2023/04/21 07:08:11;;;;;;;22.10;11.35;;;;;;;3.84;96.70;96196.31;2084202;27;21060;-59
2023/04/21 07:10:30;;;;;;;24.90;13.70;;;;;;;4.71;95.36;96191.44;2082072;28;20587;-59
2023/04/21 07:11:32;;;;;;;28.63;15.05;;;;;;;5.40;94.64;96193.69;2078944;28;20197;-59
2023/04/21 07:12:33;;;;;;;23.50;13.38;;;;;;;5.69;91.91;96197.13;2079247;28;20216;-58
2023/04/21 07:13:35;;;;;;;20.90;12.80;;;;;;;6.11;91.17;96188.84;2082975;28;20227;-59
2023/04/21 07:14:36;;;;;;;21.40;13.80;;;;;;;6.60;89.35;96180.22;2082803;28;20209;-59
2023/04/21 07:15:38;;;;;;;19.60;12.50;;;;;;;6.90;87.56;96191.22;2078115;28;20420;-59
2023/04/21 07:16:39;;;;;;;20.45;11.73;;;;;;;7.32;86.15;96185.28;2081647;28;20201;-59
2023/04/21 07:17:41;;;;;;;16.90;9.88;;;;;;;7.68;84.86;96192.53;2083239;28;20237;-59
2023/04/21 07:18:42;;;;;;;19.35;11.38;;;;;;;7.91;83.23;96192.50;2079754;28;20203;-60
2023/04/21 07:19:44;;;;;;;17.95;10.18;;;;;;;8.16;82.07;96182.78;2081536;28;20238;-60
2023/04/21 07:20:45;;;;;;;21.92;10.15;;;;;;;8.57;81.73;96181.94;2080545;28;20229;-60
2023/04/21 07:21:47;;;;;;;15.02;9.73;;;;;;;8.91;79.13;96177.84;2078911;28;20204;-60
2023/04/21 07:22:48;;;;;;;15.23;9.85;;;;;;;9.09;78.32;96185.69;2079594;28;20232;-60
2023/04/21 07:23:50;;;;;;;19.10;9.98;;;;;;;9.47;76.26;96177.84;2085241;28;20529;-60
2023/04/21 07:24:51;;;;;;;15.85;10.15;;;;;;;9.05;76.59;96184.97;2082974;28;20663;-60
2023/04/21 07:25:53;;;;;;;19.35;9.68;;;;;;;9.09;78.12;96186.56;2080865;28;20510;-60
2023/04/21 07:26:54;;;;;;;14.73;9.32;;;;;;;9.56;78.12;96190.44;2083662;28;20229;-60
2023/04/21 07:27:56;;;;;;;17.58;8.88;;;;;;;10.12;76.64;96185.97;2083206;28;20552;-60
2023/04/21 07:28:57;;;;;;;14.45;8.13;;;;;;;10.48;73.96;96180.78;2081614;28;20511;-60
2023/04/21 07:29:59;;;;;;;12.57;8.77;;;;;;;10.41;73.75;96180.22;2081945;28;20217;-60
2023/04/21 07:31:00;;;;;;;16.65;11.15;;;;;;;10.45;75.14;96182.59;2081082;28;20201;-60
2023/04/21 07:32:04;;;;;;;16.40;9.45;;;;;;;10.72;73.46;96179.47;2083488;28;20824;-60
2023/04/21 07:33:05;;;;;;;12.68;8.63;;;;;;;10.89;73.71;96181.22;2082096;28;20206;-60
2023/04/21 07:34:07;;;;;;;14.10;8.68;;;;;;;10.60;72.73;96180.97;2082862;28;20202;-60
2023/04/21 07:35:08;;;;;;;11.60;8.30;;;;;;;10.33;74.57;96180.59;2077846;28;20201;-60
2023/04/21 07:36:10;;;;;;;13.80;8.30;;;;;;;10.29;72.80;96182.50;2079766;28;20692;-60
2023/04/21 07:37:11;;;;;;;12.18;8.85;;;;;;;10.03;73.78;96186.44;2078614;28;20198;-60
2023/04/21 07:38:13;;;;;;;13.45;8.45;;;;;;;9.48;75.34;96184.75;2078747;28;20194;-59
2023/04/21 07:39:14;;;;;;;13.10;8.60;;;;;;;9.36;76.43;96175.75;2083696;28;20202;-60
2023/04/21 07:40:16;;;;;;;14.20;10.10;;;;;;;10.22;73.56;96178.53;2081683;28;20221;-60
2023/04/21 07:41:18;;;;;;;13.30;9.15;;;;;;;10.63;73.41;96179.97;2078481;28;20591;-60
2023/04/21 07:42:19;;;;;;;13.77;8.65;;;;;;;10.19;73.21;96168.25;2078813;28;20209;-59
2023/04/21 07:43:21;;;;;;;14.05;8.90;;;;;;;10.71;73.30;96184.78;2080166;28;20206;-59
2023/04/21 07:44:22;;;;;;;12.57;8.30;;;;;;;10.89;73.41;96186.44;2081939;28;20201;-60
2023/04/21 07:45:25;;;;;;;13.98;9.43;;;;;;;10.74;73.42;96177.63;2080691;28;20313;-60
2023/04/21 07:46:29;;;;;;;11.77;8.40;;;;;;;10.54;73.54;96176.06;2078875;28;20230;-59
2023/04/21 07:47:31;;;;;;;17.17;8.15;;;;;;;10.34;75.66;96178.84;2082090;28;20213;-60
2023/04/21 07:48:32;;;;;;;12.85;8.70;;;;;;;9.95;73.47;96184.22;2080774;28;20205;-59
2023/04/21 07:49:34;;;;;;;13.98;8.30;;;;;;;9.66;75.20;96180.41;2078463;28;20210;-59
2023/04/21 07:50:35;;;;;;;14.05;8.20;;;;;;;9.29;75.63;96195.19;2077148;28;20275;-59
2023/04/21 07:51:38;;;;;;;13.65;7.93;;;;;;;9.43;76.21;96177.16;2086013;28;20744;-59
2023/04/21 07:52:40;;;;;;;14.35;8.45;;;;;;;9.79;76.39;96170.25;2086160;28;20201;-59
2023/04/21 07:53:41;;;;;;;13.52;8.30;;;;;;;9.98;74.58;96172.78;2081822;28;20229;-59
2023/04/21 07:54:43;;;;;;;13.95;8.10;;;;;;;9.40;75.05;96172.09;2078706;28;20657;-59
2023/04/21 07:55:44;;;;;;;13.75;8.65;;;;;;;9.81;76.26;96176.22;2077597;28;20236;-59
2023/04/21 07:56:46;;;;;;;16.88;10.50;;;;;;;10.41;76.17;96185.44;2082078;28;20646;-59
2023/04/21 07:57:47;;;;;;;20.80;10.25;;;;;;;10.75;73.93;96181.94;2082833;28;20228;-59
2023/04/21 07:58:49;;;;;;;21.88;8.98;;;;;;;9.74;73.73;96180.88;2081392;28;20237;-59
2023/04/21 07:59:50;;;;;;;13.98;9.13;;;;;;;9.09;76.38;96180.47;2082377;28;20706;-59
2023/04/21 08:00:52;;;;;;;17.17;8.90;;;;;;;9.69;76.16;96182.88;2079959;28;20231;-59
2023/04/21 08:01:53;;;;;;;14.85;8.85;;;;;;;10.20;75.51;96175.16;2078688;28;20558;-59
2023/04/21 08:02:55;;;;;;;14.02;7.75;;;;;;;10.02;73.89;96179.53;2083036;28;20198;-59
2023/04/21 08:03:56;;;;;;;15.38;9.00;;;;;;;10.06;73.88;96175.00;2080362;28;20220;-59
2023/04/21 08:04:58;;;;;;;12.27;8.13;;;;;;;9.38;73.96;96175.69;2079230;28;20193;-60
2023/04/21 08:06:00;;;;;;;14.82;9.07;;;;;;;8.90;77.22;96157.03;2078614;28;20695;-59
2023/04/21 08:07:02;;;;;;;12.38;7.40;;;;;;;8.48;77.65;96171.91;2080721;28;20561;-59
2023/04/21 08:08:04;;;;;;;12.63;7.60;;;;;;;8.48;78.15;96166.72;2081672;28;20561;-59
2023/04/21 08:09:05;;;;;;;13.88;8.63;;;;;;;8.29;79.46;96177.03;2080934;28;20200;-59
2023/04/21 08:10:08;;;;;;;15.27;8.90;;;;;;;8.65;78.16;96173.78;2077667;28;20745;-59
2023/04/21 08:11:09;;;;;;;16.58;10.13;;;;;;;8.55;78.81;96173.34;2079483;28;20288;-59
2023/04/21 08:12:11;;;;;;;12.40;8.18;;;;;;;8.83;78.26;96167.75;2082462;28;20554;-59
2023/04/21 08:13:12;;;;;;;12.57;8.13;;;;;;;8.72;76.29;96172.56;2078570;28;20684;-59
2023/04/21 08:14:14;;;;;;;13.63;7.20;;;;;;;8.82;76.36;96175.63;2079914;28;20204;-59
2023/04/21 08:15:15;;;;;;;15.75;7.95;;;;;;;8.38;77.15;96171.47;2080408;28;20244;-59
2023/04/21 08:16:17;;;;;;;13.55;7.75;;;;;;;8.74;76.62;96173.38;2080875;28;20209;-59
2023/04/21 08:17:19;;;;;;;14.05;8.15;;;;;;;8.72;77.31;96166.53;2080841;28;20232;-59
2023/04/21 08:18:22;;;;;;;16.17;8.52;;;;;;;9.06;77.72;96152.81;2083018;28;20627;-59
2023/04/21 08:19:24;;;;;;;14.70;8.60;;;;;;;9.70;77.17;96168.06;2074729;28;20195;-59
2023/04/21 08:20:25;;;;;;;13.68;8.15;;;;;;;9.67;75.79;96158.63;2080606;28;20226;-59
2023/04/21 08:21:27;;;;;;;13.63;8.13;;;;;;;9.68;74.27;96147.28;2078486;28;20203;-62
2023/04/21 08:22:31;;;;;;;12.13;7.78;;;;;;;9.61;75.86;96161.53;2080383;28;20653;-62
2023/04/21 08:23:33;;;;;;;13.00;7.45;;;;;;;9.56;74.42;96155.69;2080673;28;20224;-62
2023/04/21 08:24:34;;;;;;;14.32;8.10;;;;;;;9.07;76.86;96166.69;2076018;28;20199;-62
2023/04/21 08:25:36;;;;;;;12.38;6.68;;;;;;;9.63;75.92;96159.72;2078165;28;20229;-62
2023/04/21 08:26:37;;;;;;;20.90;7.38;;;;;;;10.03;73.68;96154.28;2077401;28;20206;-62
2023/04/21 08:27:39;;;;;;;11.95;6.57;;;;;;;9.69;74.43;96153.34;2078059;28;20204;-62
2023/04/21 08:28:40;;;;;;;10.32;6.95;;;;;;;9.56;74.95;96156.56;2074860;28;20217;-62
2023/04/21 08:29:42;;;;;;;14.40;6.95;;;;;;;9.50;76.43;96156.84;2072869;28;20236;-60
2023/04/21 08:32:25;;;;;;;10.55;6.97;;;;;;;10.18;72.96;96144.84;2084716;27;20574;-61
2023/04/21 08:35:04;;;;;;;19.73;6.40;;;;;;;10.48;74.58;96139.84;2082251;28;20570;-61
2023/04/21 08:37:44;;;;;;;8.85;5.30;;;;;;;10.78;71.69;96142.59;2090684;27;20580;-60
2023/04/21 08:40:31;;;;;;;14.15;6.22;;;;;;;11.48;70.71;96151.03;2093795;27;21053;-59
2023/04/21 08:43:14;;;;;;;14.02;6.35;;;;;;;12.11;69.37;96147.44;2082701;28;20604;-60
2023/04/21 08:46:01;;;;;;;17.25;6.10;;;;;;;12.60;69.05;96146.31;2084280;28;21041;-60
2023/04/21 08:48:48;;;;;;;14.00;6.75;;;;;;;11.98;67.26;96151.72;2083765;27;20568;-60
2023/04/21 08:51:45;;;;;;;8.77;4.68;;;;;;;11.44;69.00;96155.59;2083764;28;20573;-60
2023/04/21 08:54:50;;;;;;;11.85;5.15;;;;;;;11.45;70.19;96152.03;2086711;28;20555;-59
2023/04/21 08:57:52;;;;;;;11.18;4.80;;;;;;;11.64;70.33;96146.59;2126145;27;21149;-60
2023/04/21 08:58:55;;;;;;;10.88;5.13;;;;;;;11.47;71.05;96139.72;2125083;27;20208;-60
2023/04/21 09:02:10;;;;;;;17.80;4.65;;;;;;;11.77;70.33;96150.22;2092088;28;20575;-60
2023/04/21 09:03:12;;;;;;;35.50;6.00;;;;;;;11.94;70.07;96148.41;2090415;28;20715;-60
2023/04/21 09:06:20;;;;;;;7.63;4.32;;;;;;;12.27;69.31;96147.41;2084704;27;20891;-60
2023/04/21 09:07:36;;;;;;;12.90;4.72;;;;;;;12.92;68.93;96146.09;2083234;28;20196;-60
2023/04/21 09:10:26;;;;;;;5.53;3.00;;;;;;;10.89;68.43;96146.41;2081337;28;20915;-60
2023/04/21 09:11:33;;;;;;;5.15;2.65;;;;;;;10.90;70.86;96150.69;2090553;28;20214;-60
2023/04/21 09:14:27;;;;;;;8.85;3.88;;;;;;;10.90;70.54;96127.19;2101266;27;21141;-60
2023/04/21 09:15:36;;;;;;;6.65;4.10;;;;;;;11.09;71.29;96120.03;2085955;28;20241;-60
2023/04/21 09:18:22;;;;;;;9.00;5.30;;;;;;;11.46;70.97;96138.03;2091929;27;21146;-60
2023/04/21 09:19:28;;;;;;;8.88;5.32;;;;;;;11.38;70.17;96141.09;2089627;28;20207;-60
2023/04/21 09:22:05;;;;;;;11.50;6.10;;;;;;;11.69;70.48;96134.13;2083505;28;20554;-60
2023/04/21 09:23:07;;;;;;;10.88;5.32;;;;;;;11.96;70.02;96137.88;2079657;28;20197;-60
2023/04/21 09:25:55;;;;;;;13.52;7.15;;;;;;;11.52;69.68;96139.47;2066938;27;20586;-60
2023/04/21 09:26:57;;;;;;;8.93;5.57;;;;;;;11.97;68.82;96140.41;2064590;28;20205;-60
2023/04/21 09:27:59;;;;;;;11.55;6.30;;;;;;;11.74;68.51;96126.00;2065712;28;20204;-60
2023/04/21 09:29:06;;;;;;;12.10;7.30;;;;;;;12.21;68.34;96145.13;2065507;28;20250;-60
2023/04/21 09:30:08;;;;;;;10.88;6.75;;;;;;;11.48;70.28;96140.56;2063909;28;20207;-60
2023/04/21 09:31:15;;;;;;;11.52;5.85;;;;;;;11.42;70.96;96139.16;2066379;28;20200;-59
2023/04/21 09:32:20;;;;;;;8.82;5.70;;;;;;;12.03;69.73;96134.81;2066284;28;20192;-60
2023/04/21 09:34:59;;;;;;;14.23;6.50;;;;;;;11.70;69.97;96134.97;2085124;28;20554;-60
2023/04/21 09:36:02;;;;;;;11.93;7.25;;;;;;;12.56;68.98;96140.41;2071658;28;20234;-60
2023/04/21 09:37:06;;;;;;;9.95;6.93;;;;;;;12.31;68.08;96148.06;2072835;28;20404;-60
2023/04/21 09:38:11;;;;;;;13.25;7.15;;;;;;;12.34;67.69;96140.88;2071377;28;20205;-60
2023/04/21 09:39:13;;;;;;;11.52;6.57;;;;;;;12.52;69.45;96138.91;2071101;28;20201;-61
2023/04/21 09:40:34;;;;;;;9.13;6.18;;;;;;;12.65;69.34;96144.25;2070124;28;20324;-61
2023/04/21 09:41:36;;;;;;;10.98;6.55;;;;;;;12.77;68.61;96140.03;2071064;28;20201;-60
2023/04/21 09:42:37;;;;;;;13.18;6.55;;;;;;;12.93;67.98;96137.31;2072436;28;20827;-60
2023/04/21 09:45:09;;;;;;;11.48;6.85;;;;;;;12.75;67.64;96141.91;2097870;27;20564;-60
2023/04/21 09:46:33;;;;;;;11.93;7.32;;;;;;;13.33;66.41;96141.81;2089307;28;20295;-60
2023/04/21 09:47:40;;;;;;;14.30;7.63;;;;;;;13.52;66.84;96138.88;2095996;28;20199;-61
2023/04/21 09:48:44;;;;;;;12.05;7.05;;;;;;;13.39;66.45;96133.59;2100798;28;20673;-61
2023/04/21 09:49:49;;;;;;;10.43;6.60;;;;;;;14.35;66.24;96138.66;2093502;28;20199;-61
2023/04/21 09:50:52;;;;;;;10.77;6.93;;;;;;;13.76;66.04;96130.38;2088662;28;20230;-60
2023/04/21 09:53:38;;;;;;;15.05;7.57;;;;;;;13.24;66.99;96119.63;2084669;28;20568;-60
2023/04/21 09:54:47;;;;;;;12.55;8.10;;;;;;;13.32;67.02;96132.25;2082444;28;20196;-60
2023/04/21 09:55:50;;;;;;;11.10;6.20;;;;;;;13.63;67.65;96132.94;2070481;28;20316;-60
2023/04/21 09:58:12;;;;;;;15.18;7.90;;;;;;;14.21;64.42;96113.31;2083482;28;20582;-60
2023/04/21 09:59:19;;;;;;;16.38;7.47;;;;;;;14.85;65.29;96136.16;2082427;28;20200;-60
2023/04/21 10:00:29;;;;;;;10.60;6.63;;;;;;;15.19;63.69;96115.34;2076267;28;20784;-61
2023/04/21 10:01:34;;;;;;;10.98;7.10;;;;;;;15.43;63.03;96121.59;2072520;28;20740;-60
2023/04/21 10:03:52;;;;;;;19.83;7.90;;;;;;;15.18;61.20;96123.34;2084587;28;20897;-60
2023/04/21 10:04:54;;;;;;;32.65;8.85;;;;;;;15.62;61.94;96114.03;2081081;28;20264;-60
2023/04/21 10:05:56;;;;;;;20.65;8.63;;;;;;;15.77;62.32;96109.44;2079904;28;20220;-60
2023/04/21 10:06:59;;;;;;;11.48;7.22;;;;;;;15.77;60.88;96101.53;2077707;28;20208;-61
2023/04/21 10:09:21;;;;;;;12.05;7.70;;;;;;;16.25;60.34;96095.34;2083435;28;20554;-61
2023/04/21 10:10:26;;;;;;;12.32;7.43;;;;;;;17.05;60.67;96098.03;2074939;28;20245;-61
2023/04/21 10:11:27;;;;;;;11.73;6.80;;;;;;;16.60;57.74;96098.88;2071341;28;20192;-61
2023/04/21 10:12:29;;;;;;;15.23;8.60;;;;;;;14.67;63.47;96109.34;2073179;28;20205;-61
2023/04/21 10:14:55;;;;;;;10.55;7.40;;;;;;;14.74;62.48;96101.91;2100312;27;20581;-60
2023/04/21 10:16:08;;;;;;;13.02;7.70;;;;;;;15.22;61.11;96103.75;2090611;28;20429;-61
2023/04/21 10:17:10;;;;;;;12.85;7.22;;;;;;;15.37;60.68;96101.00;2090765;28;20203;-60
2023/04/21 10:18:17;;;;;;;15.57;7.88;;;;;;;16.26;60.66;96098.81;2087222;28;20200;-61
2023/04/21 10:20:49;;;;;;;17.98;8.48;;;;;;;17.02;59.26;96096.47;2082771;28;20565;-61
2023/04/21 10:21:51;;;;;;;14.38;7.97;;;;;;;17.11;58.28;96090.47;2079284;28;20207;-61
2023/04/21 10:22:57;;;;;;;12.60;8.05;;;;;;;15.74;62.73;96103.53;2076918;28;20413;-61
2023/04/21 10:23:58;;;;;;;11.77;7.72;;;;;;;16.83;60.75;96093.59;2073363;28;20549;-60
2023/04/21 10:25:03;;;;;;;14.70;8.10;;;;;;;15.98;60.44;96108.81;2074841;28;20216;-61
2023/04/21 10:26:07;;;;;;;10.20;7.28;;;;;;;17.00;59.80;96098.41;2081420;28;20306;-61
2023/04/21 10:29:00;;;;;;;16.05;9.40;;;;;;;16.61;58.98;96104.00;2084111;28;20558;-61
2023/04/21 10:30:18;;;;;;;13.48;7.10;;;;;;;16.76;59.89;96093.22;2080995;28;20245;-61
2023/04/21 10:31:33;;;;;;;14.55;7.88;;;;;;;17.78;58.40;96096.50;2071242;28;20372;-61
2023/04/21 10:32:41;;;;;;;7.78;5.88;;;;;;;15.99;59.87;96103.41;2072468;28;20211;-61
2023/04/21 10:35:09;;;;;;;12.13;7.95;;;;;;;17.75;56.24;96085.34;2069989;28;20218;-61
2023/04/21 10:36:11;;;;;;;11.15;7.50;;;;;;;17.80;57.54;96096.38;2071828;28;20205;-61
2023/04/21 10:37:15;;;;;;;11.18;6.93;;;;;;;18.44;56.69;96095.44;2072220;28;20201;-61
2023/04/21 10:38:42;;;;;;;10.45;6.30;;;;;;;18.40;53.72;96095.88;2068071;28;20195;-60
2023/04/21 10:39:54;;;;;;;14.18;6.90;;;;;;;18.59;54.82;96090.66;2070012;28;20205;-61
2023/04/21 10:41:24;;;;;;;9.45;6.18;;;;;;;19.25;53.29;96093.88;2066233;28;20213;-61
2023/04/21 10:42:28;;;;;;;10.30;6.35;;;;;;;19.42;53.07;96095.00;2071643;28;20578;-62
2023/04/21 10:43:45;;;;;;;12.00;5.85;;;;;;;19.58;52.44;96089.19;2071218;28;20612;-61
2023/04/21 10:44:56;;;;;;;13.63;5.50;;;;;;;19.67;53.31;96090.16;2069874;28;20695;-61
2023/04/21 10:45:58;;;;;;;13.85;6.00;;;;;;;19.20;54.07;96090.78;2070610;28;20227;-61
2023/04/21 10:46:59;;;;;;;8.25;5.80;;;;;;;19.58;53.46;96094.47;2072562;28;20212;-61
2023/04/21 10:48:02;;;;;;;7.65;5.65;;;;;;;20.04;53.20;96078.88;2069532;28;20221;-61
2023/04/21 10:49:12;;;;;;;9.48;6.05;;;;;;;20.34;52.16;96083.16;2069267;28;20233;-61
2023/04/21 10:50:21;;;;;;;18.80;5.78;;;;;;;19.04;50.50;96086.00;2070907;28;20193;-61
2023/04/21 10:51:23;;;;;;;9.57;6.00;;;;;;;16.91;55.16;96088.56;2073876;28;20199;-63
2023/04/21 10:52:34;;;;;;;7.78;5.38;;;;;;;17.13;57.83;96085.91;2067904;28;20202;-63
2023/04/21 10:53:42;;;;;;;12.07;5.97;;;;;;;18.56;56.27;96083.00;2070741;28;20208;-63
2023/04/21 10:54:44;;;;;;;9.25;6.05;;;;;;;19.32;54.96;96084.38;2068638;28;20209;-63
2023/04/21 10:55:48;;;;;;;12.02;6.57;;;;;;;19.66;53.60;96084.00;2072418;28;20743;-63
2023/04/21 10:56:51;;;;;;;7.80;5.68;;;;;;;19.66;53.40;96072.59;2073059;28;20198;-63
2023/04/21 10:57:52;;;;;;;7.25;5.38;;;;;;;19.89;53.11;96081.13;2069307;28;20201;-62
2023/04/21 10:58:54;;;;;;;5.90;4.60;;;;;;;20.36;51.68;96065.28;2068179;28;20194;-63
2023/04/21 10:59:56;;;;;;;6.13;4.78;;;;;;;20.72;50.70;96072.59;2066704;28;20686;-63
2023/04/21 11:00:57;;;;;;;8.25;5.20;;;;;;;20.96;49.58;96076.53;2069790;28;20193;-63
2023/04/21 11:02:00;;;;;;;7.35;5.00;;;;;;;19.65;49.94;96074.38;2071931;28;21076;-63
2023/04/21 11:03:03;;;;;;;8.50;5.22;;;;;;;20.13;51.27;96083.31;2073625;28;20232;-63
2023/04/21 11:04:06;;;;;;;8.52;5.53;;;;;;;19.64;50.86;96069.25;2075140;28;20292;-63
2023/04/21 11:05:08;;;;;;;9.77;5.65;;;;;;;19.14;52.45;96076.28;2076493;28;20225;-63
2023/04/21 11:06:14;;;;;;;11.63;6.18;;;;;;;18.01;51.62;96070.03;2075025;28;20208;-63
2023/04/21 11:07:21;;;;;;;7.32;5.25;;;;;;;17.11;54.14;96066.72;2067854;28;20219;-63
2023/04/21 11:08:23;;;;;;;18.48;7.13;;;;;;;15.93;57.67;96068.81;2074001;28;20217;-63
2023/04/21 11:09:25;;;;;;;14.05;6.47;;;;;;;16.86;56.66;96066.97;2068243;28;20724;-62
2023/04/21 11:10:26;;;;;;;11.10;7.25;;;;;;;17.89;54.26;96068.38;2069600;28;20222;-62
2023/04/21 11:11:27;;;;;;;8.32;6.25;;;;;;;17.06;55.73;96071.53;2070889;28;20293;-62
2023/04/21 11:12:40;;;;;;;12.20;5.90;;;;;;;18.05;55.12;96062.69;2072521;28;20288;-62
2023/04/21 11:13:41;;;;;;;10.82;5.80;;;;;;;18.44;54.19;96066.38;2070830;28;20229;-63
2023/04/21 11:14:46;;;;;;;10.88;6.57;;;;;;;15.49;57.29;96071.13;2069174;28;20256;-62
2023/04/21 11:16:03;;;;;;;11.43;6.97;;;;;;;15.76;58.73;96077.97;2069374;28;20225;-62
2023/04/21 11:17:12;;;;;;;11.57;6.82;;;;;;;17.28;57.53;96075.06;2069245;28;20204;-62
2023/04/21 11:18:13;;;;;;;16.08;7.40;;;;;;;18.25;56.03;96074.22;2068898;28;20202;-63
2023/04/21 11:19:15;;;;;;;9.45;7.20;;;;;;;18.00;54.89;96072.78;2069335;28;20252;-63
2023/04/21 11:20:16;;;;;;;16.00;8.00;;;;;;;18.62;54.23;96072.88;2069695;28;20233;-63
2023/04/21 11:21:21;;;;;;;11.52;6.95;;;;;;;17.84;53.72;96063.50;2073914;28;20228;-62
2023/04/21 11:22:25;;;;;;;10.98;7.45;;;;;;;17.06;56.93;96066.25;2070022;28;20559;-63
2023/04/21 11:23:26;;;;;;;11.32;7.75;;;;;;;18.16;56.27;96073.19;2070107;28;20209;-63
2023/04/21 11:24:27;;;;;;;11.93;7.30;;;;;;;18.57;54.19;96062.69;2068852;28;20541;-63
2023/04/21 11:25:29;;;;;;;10.85;6.63;;;;;;;19.06;51.82;96074.31;2072298;28;20244;-63
2023/04/21 11:26:37;;;;;;;11.23;7.55;;;;;;;18.67;54.58;96078.59;2071888;28;20202;-63
2023/04/21 11:27:38;;;;;;;11.05;7.00;;;;;;;19.52;52.86;96073.84;2068124;28;20698;-63
2023/04/21 11:28:40;;;;;;;12.20;6.85;;;;;;;20.28;52.44;96069.63;2072111;28;20225;-62
2023/04/21 11:29:45;;;;;;;12.73;7.10;;;;;;;19.87;49.36;96075.13;2073768;28;20618;-63
2023/04/21 11:30:46;;;;;;;14.80;7.57;;;;;;;18.68;51.53;96064.41;2073808;28;20252;-63
2023/04/21 11:31:49;;;;;;;10.23;7.72;;;;;;;19.31;52.87;96069.50;2074761;28;20274;-63
2023/04/21 11:32:54;;;;;;;10.00;6.22;;;;;;;19.72;52.51;96056.16;2073115;28;20210;-63
2023/04/21 11:33:58;;;;;;;10.05;6.63;;;;;;;19.37;52.29;96060.16;2065910;28;20202;-63
2023/04/21 11:34:59;;;;;;;19.40;8.65;;;;;;;20.02;50.40;96057.84;2064789;28;20665;-63
2023/04/21 11:36:05;;;;;;;10.95;7.40;;;;;;;18.85;51.39;96055.81;2067964;28;20285;-63
2023/04/21 11:37:08;;;;;;;11.63;7.40;;;;;;;17.94;55.01;96055.66;2067570;28;20246;-62
2023/04/21 11:38:13;;;;;;;11.88;7.68;;;;;;;18.65;52.77;96062.03;2072333;28;20209;-63
2023/04/21 11:39:19;;;;;;;10.52;7.30;;;;;;;18.06;55.55;96059.06;2066925;28;20571;-63
2023/04/21 11:40:22;;;;;;;11.30;7.88;;;;;;;18.92;54.22;96061.47;2063781;28;20227;-62
2023/04/21 11:41:24;;;;;;;13.18;9.38;;;;;;;18.72;53.75;96064.00;2065649;28;20240;-63
2023/04/21 11:42:26;;;;;;;10.90;7.78;;;;;;;18.68;52.04;96059.94;2068635;28;20240;-63
2023/04/21 11:43:28;;;;;;;10.90;7.75;;;;;;;18.11;54.32;96055.06;2068808;28;20281;-63
2023/04/21 11:44:33;;;;;;;12.55;7.32;;;;;;;19.42;54.48;96050.00;2065132;28;20782;-63
2023/04/21 11:45:35;;;;;;;11.90;7.30;;;;;;;20.00;52.91;96056.31;2061466;28;20224;-63
2023/04/21 11:46:42;;;;;;;10.68;7.85;;;;;;;19.32;53.65;96055.28;2061331;28;20207;-63
2023/04/21 11:47:44;;;;;;;12.13;8.10;;;;;;;18.01;54.10;96048.88;2062486;28;20202;-63
2023/04/21 11:48:57;;;;;;;11.55;8.02;;;;;;;19.54;52.82;96053.34;2062853;28;20210;-63
2023/04/21 11:50:00;;;;;;;12.77;8.35;;;;;;;20.63;52.04;96053.06;2071628;28;20211;-63
2023/04/21 11:51:02;;;;;;;12.95;7.63;;;;;;;21.41;50.89;96049.19;2069340;28;20211;-63
2023/04/21 11:52:03;;;;;;;9.40;6.43;;;;;;;21.27;49.59;96045.22;2060109;28;20238;-63
2023/04/21 11:53:05;;;;;;;12.52;7.25;;;;;;;20.97;49.52;96055.16;2065422;28;20286;-63
2023/04/21 11:54:11;;;;;;;10.75;7.53;;;;;;;21.19;50.44;96056.59;2065172;28;20207;-63
2023/04/21 11:55:17;;;;;;;9.57;6.70;;;;;;;21.66;48.74;96055.59;2059473;28;20231;-63
2023/04/21 11:56:22;;;;;;;12.10;6.70;;;;;;;21.93;48.96;96055.63;2067375;28;20199;-63
2023/04/21 11:57:24;;;;;;;10.55;6.28;;;;;;;21.93;48.44;96059.16;2072751;28;20733;-63
2023/04/21 11:58:25;;;;;;;17.90;7.75;;;;;;;21.76;48.17;96050.19;2067222;28;20218;-63
2023/04/21 11:59:28;;;;;;;19.83;6.80;;;;;;;22.14;46.15;96050.84;2060649;28;20230;-63
2023/04/21 12:00:31;;;;;;;10.80;7.43;;;;;;;21.50;46.85;96048.25;2063144;28;20250;-63
2023/04/21 12:01:32;;;;;;;10.77;7.90;;;;;;;21.02;48.96;96046.75;2061904;28;20202;-64
2023/04/21 12:02:34;;;;;;;13.40;7.22;;;;;;;21.81;49.36;96049.75;2064939;28;20872;-63
2023/04/21 12:03:36;;;;;;;11.27;7.38;;;;;;;21.78;49.36;96052.72;2060731;28;20209;-63
2023/04/21 12:04:38;;;;;;;12.52;8.18;;;;;;;22.10;48.66;96052.13;2064433;28;20199;-63
2023/04/21 12:05:40;;;;;;;17.58;7.05;;;;;;;22.27;47.89;96050.44;2064601;28;20350;-63
2023/04/21 12:06:44;;;;;;;15.20;8.35;;;;;;;21.98;47.40;96040.09;2065912;28;20210;-63
2023/04/21 12:07:50;;;;;;;14.18;6.93;;;;;;;21.93;48.56;96050.31;2060704;28;20819;-63
2023/04/21 12:09:00;;;;;;;10.32;7.85;;;;;;;22.24;47.52;96045.41;2063238;28;20214;-63
2023/04/21 12:10:08;;;;;;;15.30;8.20;;;;;;;22.52;47.30;96039.13;2064484;28;20709;-63
2023/04/21 12:11:10;;;;;;;15.02;8.18;;;;;;;20.85;49.17;96043.91;2062529;28;20194;-64
2023/04/21 12:12:11;;;;;;;26.85;18.10;;;;;;;21.60;49.11;96037.59;2062862;28;20209;-61
2023/04/21 12:13:21;;;;;;;76.47;52.67;;;;;;;22.17;48.15;96039.88;2061384;28;20202;-62
2023/04/21 12:14:25;;;;;;;12.73;9.45;;;;;;;22.20;47.76;96044.06;2061697;28;20206;-62
2023/04/21 12:15:29;;;;;;;11.15;7.85;;;;;;;21.13;49.52;96033.28;2060687;28;20598;-62
2023/04/21 12:16:30;;;;;;;13.75;8.40;;;;;;;20.88;49.06;96029.53;2066133;28;20206;-62
2023/04/21 12:17:46;;;;;;;12.55;7.03;;;;;;;21.57;48.63;96021.13;2063593;28;20191;-62
2023/04/21 12:18:48;;;;;;;9.10;7.43;;;;;;;22.09;48.90;96028.34;2058119;28;20198;-62
2023/04/21 12:19:50;;;;;;;11.00;7.10;;;;;;;22.22;48.19;96018.16;2058233;28;20215;-62
2023/04/21 12:20:51;;;;;;;9.90;6.40;;;;;;;21.82;48.18;96028.31;2067724;28;20226;-62
2023/04/21 12:21:55;;;;;;;7.68;6.00;;;;;;;22.17;48.77;96026.59;2069382;28;20205;-62
2023/04/21 12:22:56;;;;;;;10.85;7.30;;;;;;;22.46;47.34;96028.13;2069712;28;20199;-62
2023/04/21 12:23:58;;;;;;;12.88;7.53;;;;;;;21.80;48.55;96026.81;2062821;28;20225;-62
2023/04/21 12:24:59;;;;;;;8.07;6.07;;;;;;;21.57;49.62;96024.63;2063039;28;20232;-62
2023/04/21 12:26:01;;;;;;;9.65;6.45;;;;;;;19.79;48.72;96028.09;2060646;28;20187;-62
2023/04/21 12:27:03;;;;;;;8.20;6.55;;;;;;;18.58;51.73;96032.63;2064147;28;20760;-62
2023/04/21 12:28:07;;;;;;;10.82;6.35;;;;;;;19.41;50.54;96028.00;2061038;28;20241;-62
2023/04/21 12:29:09;;;;;;;9.27;6.40;;;;;;;19.89;50.29;96026.31;2065548;28;20305;-61
2023/04/21 12:30:10;;;;;;;10.82;7.13;;;;;;;20.90;50.26;96021.41;2062746;28;20214;-62
2023/04/21 12:31:12;;;;;;;14.10;7.55;;;;;;;19.72;51.28;96003.19;2063006;28;20823;-62
2023/04/21 12:32:14;;;;;;;11.55;7.63;;;;;;;20.02;50.81;96017.22;2065265;28;20266;-62
2023/04/21 12:33:15;;;;;;;9.13;7.03;;;;;;;20.62;50.33;96022.22;2066083;28;20252;-62
2023/04/21 12:34:17;;;;;;;10.10;7.13;;;;;;;20.98;49.90;96018.88;2062893;28;20199;-62
2023/04/21 12:35:18;;;;;;;11.90;7.30;;;;;;;21.28;49.22;96017.69;2063647;28;20566;-62
2023/04/21 12:36:20;;;;;;;10.35;6.68;;;;;;;21.40;49.76;96012.16;2064877;28;20289;-62
2023/04/21 12:37:22;;;;;;;8.90;6.63;;;;;;;21.01;49.43;96019.41;2065442;28;20212;-62
2023/04/21 12:38:23;;;;;;;10.18;6.20;;;;;;;21.64;49.45;96019.53;2064774;28;20230;-62
2023/04/21 12:39:25;;;;;;;9.40;5.68;;;;;;;22.07;47.72;96009.06;2060357;28;20619;-62
2023/04/21 12:40:26;;;;;;;8.23;5.85;;;;;;;22.12;47.79;96023.56;2059369;28;20242;-62
2023/04/21 12:41:28;;;;;;;7.68;5.68;;;;;;;22.06;48.04;96016.22;2066415;28;20225;-62
2023/04/21 12:42:30;;;;;;;8.48;5.55;;;;;;;21.78;48.32;96011.03;2064845;28;20206;-63
2023/04/21 12:43:32;;;;;;;7.80;5.18;;;;;;;22.11;47.87;96005.94;2063946;28;20696;-62
2023/04/21 12:44:34;;;;;;;8.75;5.47;;;;;;;22.04;47.44;96012.03;2061671;28;20211;-62
2023/04/21 12:45:35;;;;;;;8.80;6.90;;;;;;;19.85;50.07;96008.22;2062349;28;20222;-62
2023/04/21 12:46:37;;;;;;;8.60;5.65;;;;;;;20.32;50.02;96016.19;2062360;28;20372;-62